createdAt,value
2023-01-08T00:00:51.627Z,53.00
2023-01-08T00:03:19.566Z,53.60
2023-01-08T00:05:47.766Z,53.00
2023-01-08T00:08:15.707Z,53.00
2023-01-08T00:10:44.942Z,53.00
2023-01-08T00:13:12.857Z,52.90
2023-01-08T00:15:40.712Z,52.90
2023-01-08T00:18:08.592Z,52.90
2023-01-08T00:20:36.441Z,53.00
2023-01-08T00:23:04.340Z,52.90
2023-01-08T00:25:32.655Z,52.90
2023-01-08T00:28:01.848Z,52.90
2023-01-08T00:30:29.834Z,52.90
2023-01-08T00:32:57.873Z,52.90
2023-01-08T00:35:25.781Z,52.90
2023-01-08T00:37:53.840Z,52.90
2023-01-08T00:40:21.722Z,52.90
2023-01-08T00:42:49.686Z,52.90
2023-01-08T00:45:19.022Z,52.90
2023-01-08T00:47:46.992Z,52.90
2023-01-08T00:50:14.899Z,52.90
2023-01-08T00:52:42.760Z,52.90
2023-01-08T00:55:10.893Z,52.90
2023-01-08T00:57:40.244Z,52.90
2023-01-08T01:00:12.887Z,52.90
2023-01-08T01:02:42.841Z,52.90
2023-01-08T01:05:15.150Z,52.90
2023-01-08T01:07:43.678Z,52.90
2023-01-08T01:10:12.420Z,52.90
2023-01-08T01:12:40.898Z,52.90
2023-01-08T01:15:12.539Z,52.90
2023-01-08T01:17:43.017Z,52.90
2023-01-08T01:20:14.481Z,52.90
2023-01-08T01:22:42.385Z,52.80
2023-01-08T01:25:11.533Z,52.90
2023-01-08T01:27:39.545Z,52.90
2023-01-08T01:30:09.357Z,52.80
2023-01-08T01:32:37.387Z,52.90
2023-01-08T01:35:07.655Z,52.80
2023-01-08T01:37:35.574Z,52.80
2023-01-08T01:40:03.778Z,52.80
2023-01-08T01:42:41.633Z,52.80
2023-01-08T01:45:21.147Z,52.80
2023-01-08T01:47:52.368Z,52.90
2023-01-08T01:50:27.575Z,52.80
2023-01-08T01:53:01.831Z,52.80
2023-01-08T01:55:31.622Z,52.70
2023-01-08T01:58:05.470Z,52.90
2023-01-08T02:00:34.652Z,52.80
2023-01-08T02:03:03.164Z,52.80
2023-01-08T02:05:39.604Z,52.80
2023-01-08T02:08:12.092Z,52.70
2023-01-08T02:10:46.697Z,52.80
2023-01-08T02:13:20.462Z,52.80
2023-01-08T02:15:56.636Z,52.80
2023-01-08T02:18:30.185Z,52.70
2023-01-08T02:21:04.835Z,52.70
2023-01-08T02:23:41.628Z,52.80
2023-01-08T02:26:16.903Z,52.80
2023-01-08T02:28:49.435Z,52.80
2023-01-08T02:31:18.631Z,52.80
2023-01-08T02:33:46.558Z,52.80
2023-01-08T02:36:29.062Z,52.80
2023-01-08T02:39:16.250Z,52.80
2023-01-08T02:42:10.142Z,52.70
2023-01-08T02:44:51.721Z,52.80
2023-01-08T02:47:28.052Z,52.80
2023-01-08T02:50:04.185Z,52.70
2023-01-08T02:52:37.933Z,52.70
2023-01-08T02:55:06.665Z,52.80
2023-01-08T02:57:36.197Z,52.70
2023-01-08T03:00:04.872Z,52.70
2023-01-08T03:02:36.033Z,52.80
2023-01-08T03:05:10.297Z,52.80
2023-01-08T03:07:38.419Z,52.70
2023-01-08T03:10:07.460Z,52.80
2023-01-08T03:12:45.847Z,52.70
2023-01-08T03:15:19.813Z,52.80
2023-01-08T03:17:51.503Z,52.80
2023-01-08T03:20:23.038Z,52.70
2023-01-08T03:22:53.907Z,52.80
2023-01-08T03:25:24.898Z,52.80
2023-01-08T03:27:58.189Z,52.80
2023-01-08T03:30:26.655Z,52.70
2023-01-08T03:32:57.879Z,52.80
2023-01-08T03:35:27.068Z,52.70
2023-01-08T03:37:58.726Z,52.80
2023-01-08T03:40:32.159Z,52.80
2023-01-08T03:43:01.452Z,52.70
2023-01-08T03:45:32.776Z,52.80
2023-01-08T03:48:03.593Z,52.80
2023-01-08T03:50:33.264Z,52.70
2023-01-08T03:53:01.242Z,52.70
2023-01-08T03:55:29.158Z,52.70
2023-01-08T03:57:57.030Z,52.70
2023-01-08T04:00:26.641Z,52.80
2023-01-08T04:02:54.494Z,52.70
2023-01-08T04:05:22.414Z,52.70
2023-01-08T04:07:50.273Z,52.70
2023-01-08T04:10:18.511Z,52.60
2023-01-08T04:12:46.427Z,52.70
2023-01-08T04:15:14.247Z,52.60
2023-01-08T04:17:43.491Z,52.60
2023-01-08T04:20:12.153Z,52.70
2023-01-08T04:22:40.042Z,52.60
2023-01-08T04:25:08.500Z,52.60
2023-01-08T04:27:36.364Z,52.70
2023-01-08T04:30:05.076Z,52.60
2023-01-08T04:32:32.925Z,52.60
2023-01-08T04:35:02.141Z,52.70
2023-01-08T04:37:29.982Z,52.60
2023-01-08T04:39:57.824Z,52.70
2023-01-08T04:42:25.711Z,52.70
2023-01-08T04:44:53.542Z,52.60
2023-01-08T04:47:21.388Z,52.60
2023-01-08T04:49:49.283Z,52.60
2023-01-08T04:52:18.485Z,52.70
2023-01-08T04:54:46.389Z,52.60
2023-01-08T04:57:14.234Z,52.70
2023-01-08T04:59:42.178Z,52.70
2023-01-08T05:02:10.672Z,52.70
2023-01-08T05:04:38.651Z,52.70
2023-01-08T05:07:07.817Z,52.70
2023-01-08T05:09:37.039Z,52.70
2023-01-08T05:12:05.360Z,52.70
2023-01-08T05:14:33.565Z,52.70
2023-01-08T05:17:01.427Z,52.70
2023-01-08T05:19:29.259Z,52.60
2023-01-08T05:21:57.802Z,52.70
2023-01-08T05:24:25.730Z,52.70
2023-01-08T05:26:55.008Z,52.70
2023-01-08T05:29:23.049Z,52.70
2023-01-08T05:31:50.903Z,52.60
2023-01-08T05:34:18.736Z,52.60
2023-01-08T05:36:46.624Z,52.60
2023-01-08T05:39:14.484Z,52.70
2023-01-08T05:41:42.296Z,52.70
2023-01-08T05:44:12.530Z,52.70
2023-01-08T05:46:40.422Z,52.70
2023-01-08T05:49:08.484Z,52.70
2023-01-08T05:51:36.349Z,52.70
2023-01-08T05:54:04.376Z,52.70
2023-01-08T05:56:32.244Z,52.70
2023-01-08T05:59:00.116Z,52.70
2023-01-08T06:01:29.354Z,52.70
2023-01-08T06:03:58.869Z,52.70
2023-01-08T06:06:26.804Z,52.70
2023-01-08T06:08:54.666Z,52.60
2023-01-08T06:11:22.540Z,53.40
2023-01-08T06:13:50.487Z,52.60
2023-01-08T06:16:18.412Z,52.60
2023-01-08T06:18:47.872Z,52.70
2023-01-08T06:21:15.986Z,52.60
2023-01-08T06:23:44.060Z,52.60
2023-01-08T06:26:11.932Z,52.70
2023-01-08T06:28:39.748Z,52.70
2023-01-08T06:31:07.687Z,52.70
2023-01-08T06:33:35.594Z,52.70
2023-01-08T06:36:06.303Z,52.70
2023-01-08T06:38:35.093Z,52.70
2023-01-08T06:41:05.343Z,52.70
2023-01-08T06:43:34.063Z,52.70
2023-01-08T06:46:04.815Z,52.70
2023-01-08T06:48:32.912Z,52.70
2023-01-08T06:51:01.365Z,52.70
2023-01-08T06:53:30.856Z,53.30
2023-01-08T06:55:58.836Z,52.70
2023-01-08T06:58:27.712Z,52.70
2023-01-08T07:00:55.642Z,52.70
2023-01-08T07:03:23.546Z,52.70
2023-01-08T07:05:51.633Z,52.70
2023-01-08T07:08:20.420Z,52.70
2023-01-08T07:10:49.661Z,52.70
2023-01-08T07:13:17.501Z,52.70
2023-01-08T07:15:45.369Z,52.70
2023-01-08T07:18:13.709Z,52.80
2023-01-08T07:20:41.749Z,52.80
2023-01-08T07:23:12.314Z,52.80
2023-01-08T07:25:40.265Z,52.80
2023-01-08T07:28:12.827Z,52.80
2023-01-08T07:30:40.708Z,52.80
2023-01-08T07:33:08.715Z,52.80
2023-01-08T07:35:38.319Z,52.80
2023-01-08T07:38:06.764Z,52.80
2023-01-08T07:40:34.705Z,52.80
2023-01-08T07:43:03.531Z,52.80
2023-01-08T07:45:32.800Z,52.80
2023-01-08T07:48:01.191Z,52.80
2023-01-08T07:50:29.570Z,52.80
2023-01-08T07:53:01.436Z,52.80
2023-01-08T07:55:30.778Z,52.80
2023-01-08T07:57:58.671Z,52.80
2023-01-08T08:00:27.019Z,52.80
2023-01-08T08:02:56.338Z,52.80
2023-01-08T08:05:24.253Z,52.80
2023-01-08T08:07:52.142Z,52.80
2023-01-08T08:10:20.034Z,52.80
2023-01-08T08:12:47.908Z,52.80
2023-01-08T08:15:15.772Z,52.80
2023-01-08T08:17:46.937Z,52.80
2023-01-08T08:20:16.740Z,52.80
2023-01-08T08:22:44.636Z,52.80
2023-01-08T08:25:15.079Z,52.80
2023-01-08T08:27:43.085Z,52.80
2023-01-08T08:30:12.885Z,52.80
2023-01-08T08:32:40.739Z,52.80
2023-01-08T08:35:09.252Z,52.80
2023-01-08T08:37:38.522Z,52.80
2023-01-08T08:40:07.592Z,52.80
2023-01-08T08:42:35.604Z,52.80
2023-01-08T08:45:03.601Z,52.90
2023-01-08T08:47:31.611Z,52.80
2023-01-08T08:49:59.458Z,52.80
2023-01-08T08:52:27.343Z,52.90
2023-01-08T08:54:56.533Z,52.90
2023-01-08T08:57:24.908Z,52.80
2023-01-08T08:59:52.893Z,52.80
2023-01-08T09:02:21.122Z,52.90
2023-01-08T09:04:49.051Z,52.90
2023-01-08T09:07:16.941Z,52.90
2023-01-08T09:09:44.803Z,52.90
2023-01-08T09:12:14.016Z,52.90
2023-01-08T09:14:41.889Z,52.90
2023-01-08T09:17:09.713Z,52.90
2023-01-08T09:19:38.560Z,52.90
2023-01-08T09:22:06.437Z,52.90
2023-01-08T09:24:34.314Z,52.90
2023-01-08T09:27:02.181Z,52.90
2023-01-08T09:29:31.410Z,52.90
2023-01-08T09:32:00.630Z,52.90
2023-01-08T09:34:29.784Z,52.90
2023-01-08T09:36:58.240Z,52.90
2023-01-08T09:39:26.116Z,52.90
2023-01-08T09:41:54.644Z,52.90
2023-01-08T09:44:27.042Z,53.00
2023-01-08T09:46:57.288Z,52.90
2023-01-08T09:49:29.640Z,52.90
2023-01-08T09:51:57.566Z,52.90
2023-01-08T09:54:27.321Z,52.90
2023-01-08T09:56:55.651Z,53.00
2023-01-08T09:59:23.514Z,52.90
2023-01-08T10:01:54.039Z,53.00
2023-01-08T10:04:25.607Z,53.60
2023-01-08T10:06:55.937Z,53.00
2023-01-08T10:09:28.077Z,53.00
2023-01-08T10:11:58.959Z,53.00
2023-01-08T10:14:30.465Z,53.00
2023-01-08T10:17:01.804Z,53.00
2023-01-08T10:19:30.990Z,53.00
2023-01-08T10:21:59.048Z,52.90
2023-01-08T10:24:35.278Z,53.00
2023-01-08T10:27:08.523Z,53.00
2023-01-08T10:29:36.430Z,52.90
2023-01-08T10:32:11.934Z,52.90
2023-01-08T10:34:47.183Z,52.90
2023-01-08T10:37:18.022Z,52.90
2023-01-08T10:39:48.349Z,52.90
2023-01-08T10:42:19.180Z,52.90
2023-01-08T10:45:00.020Z,52.90
2023-01-08T10:47:31.668Z,53.60
2023-01-08T10:50:02.297Z,52.90
2023-01-08T10:52:33.665Z,52.90
2023-01-08T10:55:13.931Z,52.90
2023-01-08T10:57:43.660Z,52.90
2023-01-08T11:00:27.516Z,52.90
2023-01-08T11:02:55.671Z,52.90
2023-01-08T11:05:33.409Z,52.90
2023-01-08T11:08:03.701Z,53.00
2023-01-08T11:10:31.615Z,52.90
2023-01-08T11:13:01.355Z,52.90
2023-01-08T11:15:35.130Z,53.00
2023-01-08T11:18:08.683Z,53.00
2023-01-08T11:20:39.336Z,52.90
2023-01-08T11:23:07.789Z,52.90
2023-01-08T11:25:36.700Z,53.00
2023-01-08T11:28:06.841Z,53.00
2023-01-08T11:30:37.418Z,53.00
2023-01-08T11:33:10.360Z,53.00
2023-01-08T11:35:43.281Z,52.90
2023-01-08T11:38:14.289Z,53.00
2023-01-08T11:40:50.822Z,53.00
2023-01-08T11:43:28.730Z,53.00
2023-01-08T11:46:14.563Z,53.60
2023-01-08T11:49:00.112Z,53.00
2023-01-08T11:51:53.040Z,53.00
2023-01-08T11:54:32.640Z,53.00
2023-01-08T11:57:14.928Z,53.00
2023-01-08T11:59:57.345Z,53.00
2023-01-08T12:02:41.492Z,53.00
2023-01-08T12:05:26.540Z,53.00
2023-01-08T12:08:02.850Z,53.00
2023-01-08T12:10:39.227Z,53.00
2023-01-08T12:13:20.937Z,53.00
2023-01-08T12:15:59.363Z,53.00
2023-01-08T12:18:41.251Z,53.00
2023-01-08T12:21:15.494Z,53.00
2023-01-08T12:24:03.900Z,53.00
2023-01-08T12:26:42.923Z,53.00
2023-01-08T12:29:26.828Z,53.00
2023-01-08T12:32:11.314Z,53.00
2023-01-08T12:34:50.633Z,53.00
2023-01-08T12:37:25.291Z,53.00
2023-01-08T12:40:02.225Z,53.00
2023-01-08T12:42:32.366Z,53.00
2023-01-08T12:45:03.844Z,53.00
2023-01-08T12:47:36.480Z,53.00
2023-01-08T12:50:21.712Z,53.00
2023-01-08T12:52:55.681Z,53.00
2023-01-08T12:55:34.765Z,53.00
2023-01-08T12:58:15.259Z,53.00
2023-01-08T13:00:52.464Z,53.00
2023-01-08T13:03:26.115Z,53.00
2023-01-08T13:05:54.134Z,53.00
2023-01-08T13:08:34.636Z,53.00
2023-01-08T13:11:04.927Z,53.00
2023-01-08T13:13:35.112Z,53.00
2023-01-08T13:16:17.217Z,53.70
2023-01-08T13:18:53.705Z,53.00
2023-01-08T13:21:33.271Z,53.00
2023-01-08T13:24:03.436Z,53.00
2023-01-08T13:26:35.201Z,53.10
2023-01-08T13:29:25.117Z,53.00
2023-01-08T13:31:53.136Z,53.00
2023-01-08T13:34:38.803Z,53.10
2023-01-08T13:37:11.396Z,53.70
2023-01-08T13:39:44.378Z,53.10
2023-01-08T13:42:28.562Z,53.00
2023-01-08T13:45:02.055Z,53.00
2023-01-08T13:47:33.129Z,53.00
2023-01-08T13:50:04.138Z,53.10
2023-01-08T13:52:43.733Z,53.00
2023-01-08T13:55:17.754Z,53.10
2023-01-08T13:57:50.416Z,53.00
2023-01-08T14:00:24.198Z,53.10
2023-01-08T14:02:54.805Z,53.10
2023-01-08T14:05:25.959Z,53.10
2023-01-08T14:07:54.499Z,53.10
2023-01-08T14:10:23.241Z,53.00
2023-01-08T14:12:53.112Z,53.10
2023-01-08T14:15:26.716Z,53.10
2023-01-08T14:17:55.629Z,53.10
2023-01-08T14:20:34.236Z,53.10
2023-01-08T14:23:03.346Z,53.10
2023-01-08T14:25:31.550Z,53.10
2023-01-08T14:28:03.046Z,53.00
2023-01-08T14:30:31.121Z,53.10
2023-01-08T14:33:00.737Z,53.00
2023-01-08T14:35:32.947Z,53.00
2023-01-08T14:38:02.677Z,53.00
2023-01-08T14:40:33.240Z,53.00
2023-01-08T14:43:09.374Z,53.10
2023-01-08T14:45:39.280Z,53.10
2023-01-08T14:48:13.732Z,53.10
2023-01-08T14:50:43.907Z,53.00
2023-01-08T14:53:21.558Z,53.00
2023-01-08T14:55:51.222Z,53.10
2023-01-08T14:58:25.342Z,53.00
2023-01-08T15:00:56.208Z,53.10
2023-01-08T15:03:36.119Z,53.10
2023-01-08T15:06:04.697Z,53.00
2023-01-08T15:08:37.641Z,53.00
2023-01-08T15:11:07.414Z,53.00
2023-01-08T15:13:38.449Z,53.00
2023-01-08T15:16:09.658Z,53.00
2023-01-08T15:18:46.082Z,53.00
2023-01-08T15:21:19.411Z,53.10
2023-01-08T15:23:49.867Z,53.00
2023-01-08T15:26:18.454Z,53.00
2023-01-08T15:28:50.774Z,53.00
2023-01-08T15:31:29.601Z,53.00
2023-01-08T15:33:58.381Z,53.00
2023-01-08T15:36:26.672Z,53.00
2023-01-08T15:38:54.586Z,53.00
2023-01-08T15:41:38.047Z,53.70
2023-01-08T15:44:08.088Z,53.00
2023-01-08T15:46:35.983Z,53.00
2023-01-08T15:49:03.864Z,53.00
2023-01-08T15:51:34.301Z,53.00
2023-01-08T15:54:02.968Z,53.00
2023-01-08T15:56:30.885Z,53.00
2023-01-08T15:58:58.765Z,53.00
2023-01-08T16:01:29.477Z,53.00
2023-01-08T16:03:57.640Z,53.00
2023-01-08T16:06:25.631Z,53.00
2023-01-08T16:08:53.795Z,53.00
2023-01-08T16:11:21.643Z,53.00
2023-01-08T16:13:49.519Z,53.00
2023-01-08T16:16:17.479Z,53.00
2023-01-08T16:18:46.731Z,53.00
2023-01-08T16:21:15.186Z,53.00
2023-01-08T16:23:43.091Z,53.00
2023-01-08T16:26:12.668Z,53.00
2023-01-08T16:28:41.231Z,53.00
2023-01-08T16:31:10.204Z,53.10
2023-01-08T16:33:38.342Z,53.00
2023-01-08T16:36:09.529Z,53.00
2023-01-08T16:38:38.027Z,53.00
2023-01-08T16:41:06.462Z,53.10
2023-01-08T16:43:41.695Z,53.00
2023-01-08T16:46:13.652Z,53.00
2023-01-08T16:48:42.355Z,53.00
2023-01-08T16:51:12.011Z,53.00
2023-01-08T16:53:40.354Z,53.00
2023-01-08T16:56:08.884Z,53.10
2023-01-08T16:58:37.266Z,53.00
2023-01-08T17:01:09.546Z,53.00
2023-01-08T17:03:38.110Z,53.00
2023-01-08T17:06:06.491Z,53.10
2023-01-08T17:08:39.944Z,53.00
2023-01-08T17:11:10.230Z,53.10
2023-01-08T17:13:38.146Z,53.00
2023-01-08T17:16:06.720Z,53.10
2023-01-08T17:18:34.915Z,53.10
2023-01-08T17:21:02.932Z,53.00
2023-01-08T17:23:30.923Z,53.00
2023-01-08T17:26:04.035Z,53.00
2023-01-08T17:28:34.868Z,53.10
2023-01-08T17:31:03.454Z,53.00
2023-01-08T17:33:31.495Z,53.10
2023-01-08T17:35:59.638Z,53.10
2023-01-08T17:38:28.450Z,53.10
2023-01-08T17:40:56.309Z,53.10
2023-01-08T17:43:25.534Z,53.10
2023-01-08T17:45:56.273Z,53.10
2023-01-08T17:48:24.263Z,53.10
2023-01-08T17:50:52.102Z,53.10
2023-01-08T17:53:19.957Z,53.10
2023-01-08T17:55:48.006Z,53.00
2023-01-08T17:58:15.863Z,53.10
2023-01-08T18:00:45.139Z,53.10
2023-01-08T18:03:13.479Z,53.00
2023-01-08T18:05:41.403Z,53.10
2023-01-08T18:08:09.240Z,53.10
2023-01-08T18:10:38.594Z,53.00
2023-01-08T18:13:06.480Z,53.10
2023-01-08T18:15:34.899Z,53.10
2023-01-08T18:18:05.651Z,53.10
2023-01-08T18:20:34.989Z,53.10
2023-01-08T18:23:02.850Z,53.00
2023-01-08T18:25:30.752Z,53.10
2023-01-08T18:27:58.589Z,53.10
2023-01-08T18:30:26.945Z,53.10
2023-01-08T18:32:54.795Z,53.10
2023-01-08T18:35:24.004Z,53.10
2023-01-08T18:37:51.816Z,53.10
2023-01-08T18:40:19.721Z,53.10
2023-01-08T18:42:48.691Z,53.10
2023-01-08T18:45:17.047Z,53.10
2023-01-08T18:47:44.903Z,53.10
2023-01-08T18:50:13.129Z,53.10
2023-01-08T18:52:42.481Z,53.10
2023-01-08T18:55:11.144Z,53.10
2023-01-08T18:57:39.403Z,53.10
2023-01-08T19:00:08.800Z,53.10
2023-01-08T19:02:36.706Z,53.10
2023-01-08T19:05:05.084Z,53.10
2023-01-08T19:07:32.993Z,53.10
2023-01-08T19:10:02.351Z,53.10
2023-01-08T19:12:32.273Z,53.10
2023-01-08T19:15:00.139Z,53.10
2023-01-08T19:17:30.913Z,53.10
2023-01-08T19:19:58.844Z,53.10
2023-01-08T19:22:27.428Z,53.10
2023-01-08T19:24:55.780Z,53.10
2023-01-08T19:27:25.713Z,53.10
2023-01-08T19:29:53.668Z,53.10
2023-01-08T19:32:21.668Z,53.10
2023-01-08T19:34:50.577Z,53.10
2023-01-08T19:37:18.449Z,53.10
2023-01-08T19:39:46.516Z,53.10
2023-01-08T19:42:32.096Z,53.10
2023-01-08T19:45:01.318Z,53.10
2023-01-08T19:47:29.186Z,53.10
2023-01-08T19:49:57.027Z,53.10
2023-01-08T19:52:24.899Z,53.10
2023-01-08T19:54:55.097Z,53.10
2023-01-08T19:57:23.028Z,53.10
2023-01-08T19:59:50.975Z,53.10
2023-01-08T20:02:20.457Z,53.10
2023-01-08T20:04:48.402Z,53.10
2023-01-08T20:07:16.336Z,53.10
2023-01-08T20:09:44.511Z,53.00
2023-01-08T20:12:13.984Z,53.00
2023-01-08T20:14:41.863Z,53.00
2023-01-08T20:17:11.736Z,53.10
2023-01-08T20:19:40.986Z,53.00
2023-01-08T20:22:08.912Z,53.00
2023-01-08T20:24:38.151Z,53.00
2023-01-08T20:27:07.558Z,53.10
2023-01-08T20:29:35.592Z,53.10
2023-01-08T20:32:04.937Z,53.00
2023-01-08T20:34:33.443Z,53.00
2023-01-08T20:37:02.695Z,53.00
2023-01-08T20:39:30.579Z,53.00
2023-01-08T20:42:04.156Z,53.00
2023-01-08T20:44:33.038Z,53.00
2023-01-08T20:47:01.517Z,53.00
2023-01-08T20:49:29.674Z,53.00
2023-01-08T20:52:00.127Z,53.00
2023-01-08T20:54:30.705Z,53.00
2023-01-08T20:56:59.832Z,53.00
2023-01-08T20:59:28.689Z,53.00
2023-01-08T21:01:57.240Z,53.00
2023-01-08T21:04:25.878Z,53.00
2023-01-08T21:06:53.821Z,53.10
2023-01-08T21:09:21.819Z,53.00
2023-01-08T21:11:51.219Z,53.00
2023-01-08T21:14:19.099Z,53.10
2023-01-08T21:16:47.106Z,53.00
2023-01-08T21:19:15.556Z,53.10
2023-01-08T21:21:43.735Z,53.10
2023-01-08T21:24:13.867Z,53.00
2023-01-08T21:26:41.925Z,53.10
2023-01-08T21:29:11.889Z,53.10
2023-01-08T21:31:40.583Z,53.70
2023-01-08T21:34:09.381Z,53.10
2023-01-08T21:36:39.027Z,53.10
2023-01-08T21:39:07.378Z,53.10
2023-01-08T21:41:52.754Z,53.10
2023-01-08T21:44:41.185Z,53.10
2023-01-08T21:47:10.491Z,53.10
2023-01-08T21:49:38.361Z,53.10
2023-01-08T21:52:24.665Z,53.10
2023-01-08T21:54:53.674Z,53.10
2023-01-08T21:57:21.947Z,53.10
2023-01-08T21:59:51.970Z,53.10
2023-01-08T22:02:22.284Z,53.10
2023-01-08T22:04:50.369Z,53.10
2023-01-08T22:07:18.383Z,53.10
2023-01-08T22:09:46.324Z,53.10
2023-01-08T22:12:14.896Z,53.10
2023-01-08T22:14:42.754Z,53.10
2023-01-08T22:17:11.974Z,53.10
2023-01-08T22:19:41.294Z,53.10
2023-01-08T22:22:11.075Z,53.10
2023-01-08T22:24:40.145Z,53.20
2023-01-08T22:27:08.845Z,53.10
2023-01-08T22:29:37.257Z,53.10
2023-01-08T22:32:05.585Z,53.10
2023-01-08T22:34:35.883Z,53.10
2023-01-08T22:37:04.100Z,53.10
2023-01-08T22:39:32.123Z,53.10
2023-01-08T22:42:00.097Z,53.10
2023-01-08T22:44:28.036Z,53.10
2023-01-08T22:46:56.469Z,53.10
2023-01-08T22:49:24.353Z,53.20
2023-01-08T22:51:53.567Z,53.10
2023-01-08T22:54:21.436Z,53.10
2023-01-08T22:56:49.250Z,53.10
2023-01-08T22:59:17.177Z,53.10
2023-01-08T23:01:45.096Z,53.20
2023-01-08T23:04:13.009Z,53.20
2023-01-08T23:06:40.905Z,53.20
2023-01-08T23:09:10.123Z,53.10
2023-01-08T23:11:38.026Z,53.10
2023-01-08T23:14:06.135Z,53.10
2023-01-08T23:16:34.038Z,53.20
2023-01-08T23:19:02.197Z,53.20
2023-01-08T23:21:30.146Z,53.20
2023-01-08T23:23:58.060Z,53.20
2023-01-08T23:26:29.167Z,53.20
2023-01-08T23:28:58.178Z,53.20
2023-01-08T23:31:29.071Z,53.20
2023-01-08T23:33:57.795Z,53.20
2023-01-08T23:36:26.868Z,53.20
2023-01-08T23:38:56.544Z,53.20
2023-01-08T23:41:33.095Z,53.10
2023-01-08T23:44:04.228Z,53.20
2023-01-08T23:46:32.157Z,53.20
2023-01-08T23:49:00.141Z,53.20
2023-01-08T23:51:28.074Z,53.20
2023-01-08T23:53:55.920Z,53.20
2023-01-08T23:56:23.880Z,53.20
2023-01-08T23:58:53.278Z,53.20
